Time;durP1;ratioP1;P1;durP2;ratioP2;P2;SDS_P1;SDS_P2;PMS_P1;PMS_P2;Temp;Humidity;BMP_temperature;BMP_pressure;BME280_temperature;BME280_humidity;BME280_pressure;Samples;Min_cycle;Max_cycle;Signal;HPM_P1;HPM_P2
2022/04/19 00:01:23;;;;;;;9.38;7.55;;;9.20;99.90;;;;;;5023569;28;20135;-58
2022/04/19 00:03:49;;;;;;;10.60;7.10;;;9.30;99.90;;;;;;5022775;28;20049;-59
2022/04/19 00:06:15;;;;;;;9.65;6.82;;;9.20;99.90;;;;;;5017711;28;20057;-59
2022/04/19 00:08:41;;;;;;;9.98;6.78;;;9.20;99.90;;;;;;5022904;28;20049;-58
2022/04/19 00:11:08;;;;;;;9.07;7.40;;;9.20;99.90;;;;;;5022213;28;20084;-58
2022/04/19 00:13:34;;;;;;;11.25;7.13;;;9.10;99.90;;;;;;5021718;28;20206;-54
2022/04/19 00:16:00;;;;;;;10.13;7.75;;;9.10;99.90;;;;;;5003157;28;20644;-58
2022/04/19 00:18:27;;;;;;;8.68;7.10;;;9.00;99.90;;;;;;5005015;28;20056;-58
2022/04/19 00:20:54;;;;;;;9.82;7.10;;;9.00;99.90;;;;;;5022140;28;20065;-58
2022/04/19 00:23:21;;;;;;;10.27;7.57;;;8.90;99.90;;;;;;5018102;28;20080;-59
2022/04/19 00:25:48;;;;;;;10.52;7.00;;;8.90;99.90;;;;;;5005372;28;20081;-58
2022/04/19 00:28:15;;;;;;;9.38;7.18;;;8.90;99.90;;;;;;5019563;28;20053;-59
2022/04/19 00:30:42;;;;;;;10.35;8.13;;;8.90;99.90;;;;;;5036569;28;20057;-54
2022/04/19 00:33:09;;;;;;;10.60;7.30;;;8.90;99.90;;;;;;5002570;28;20465;-52
2022/04/19 00:35:37;;;;;;;9.55;7.78;;;8.80;99.90;;;;;;5020890;28;20489;-58
2022/04/19 00:38:03;;;;;;;9.45;8.27;;;8.80;99.90;;;;;;5020861;28;20053;-58
2022/04/19 00:40:30;;;;;;;10.60;8.57;;;8.80;99.90;;;;;;5021420;28;20057;-58
2022/04/19 00:42:57;;;;;;;10.88;8.13;;;8.70;99.90;;;;;;5024082;28;20045;-59
2022/04/19 00:45:24;;;;;;;10.07;8.50;;;8.70;99.90;;;;;;5000165;28;20409;-58
2022/04/19 00:47:54;;;;;;;10.55;8.68;;;8.70;99.90;;;;;;4987835;28;20048;-59
2022/04/19 00:50:24;;;;;;;10.77;8.60;;;8.60;99.90;;;;;;5021527;28;20242;-55
2022/04/19 00:52:52;;;;;;;12.15;8.90;;;8.60;99.90;;;;;;5019309;28;20045;-55
2022/04/19 00:55:19;;;;;;;11.40;8.43;;;8.60;99.90;;;;;;4986219;28;20049;-59
2022/04/19 00:57:46;;;;;;;13.43;10.10;;;8.50;99.90;;;;;;4989135;28;20099;-54
2022/04/19 01:00:15;;;;;;;12.77;10.00;;;8.40;99.90;;;;;;4998598;28;20061;-55
2022/04/19 01:03:10;;;;;;;13.40;9.93;;;8.40;99.90;;;;;;5013309;28;20133;-53
2022/04/19 01:05:37;;;;;;;12.18;9.75;;;8.30;99.90;;;;;;5005687;28;20115;-54
2022/04/19 01:08:07;;;;;;;11.98;9.05;;;8.30;99.90;;;;;;5003706;28;20554;-55
2022/04/19 01:10:35;;;;;;;13.30;10.95;;;8.30;99.90;;;;;;4989924;28;20107;-54
2022/04/19 01:13:19;;;;;;;12.68;9.95;;;8.30;99.90;;;;;;5021396;28;20603;-54
2022/04/19 01:15:50;;;;;;;12.50;10.50;;;8.30;99.90;;;;;;5020824;28;20045;-55
2022/04/19 01:18:20;;;;;;;12.80;10.38;;;8.20;99.90;;;;;;4984934;28;20524;-54
2022/04/19 01:20:50;;;;;;;14.23;10.65;;;8.20;99.90;;;;;;5022157;28;20209;-55
2022/04/19 01:23:22;;;;;;;13.77;10.68;;;8.10;99.90;;;;;;5026477;28;20057;-54
2022/04/19 01:25:48;;;;;;;11.75;9.73;;;8.00;99.90;;;;;;5023098;28;20136;-54
2022/04/19 01:28:16;;;;;;;12.93;9.95;;;8.00;99.90;;;;;;5024646;28;20091;-55
2022/04/19 01:30:43;;;;;;;9.85;8.85;;;7.90;99.90;;;;;;5025470;28;20160;-59
2022/04/19 01:33:11;;;;;;;12.50;9.63;;;7.90;99.90;;;;;;5009323;28;20076;-59
2022/04/19 01:35:39;;;;;;;10.75;8.90;;;7.90;99.90;;;;;;5020330;28;20049;-58
2022/04/19 01:38:06;;;;;;;13.38;8.60;;;7.90;99.90;;;;;;5023614;28;20052;-59
2022/04/19 01:40:36;;;;;;;10.75;8.60;;;7.90;99.90;;;;;;5008836;28;20053;-59
2022/04/19 01:43:05;;;;;;;12.75;9.38;;;7.80;99.90;;;;;;5007426;28;20132;-54
2022/04/19 01:45:41;;;;;;;11.27;8.55;;;7.80;99.90;;;;;;4991913;28;20140;-55
2022/04/19 01:48:12;;;;;;;14.15;9.35;;;7.70;99.90;;;;;;5006148;28;20091;-53
2022/04/19 01:50:39;;;;;;;11.82;8.98;;;7.70;99.90;;;;;;5024756;28;20049;-54
2022/04/19 01:53:06;;;;;;;11.90;9.10;;;7.70;99.90;;;;;;5024094;28;20703;-58
2022/04/19 01:55:32;;;;;;;9.98;8.60;;;7.70;99.90;;;;;;5010093;28;20065;-58
2022/04/19 01:58:05;;;;;;;13.27;9.45;;;7.70;99.90;;;;;;4990810;28;20057;-58
2022/04/19 02:00:40;;;;;;;10.95;8.35;;;7.70;99.90;;;;;;5008396;28;20445;-58
2022/04/19 02:03:08;;;;;;;11.48;9.00;;;7.60;99.90;;;;;;5025441;28;20053;-58
2022/04/19 02:05:34;;;;;;;13.85;9.75;;;7.60;99.90;;;;;;5024022;28;20738;-58
2022/04/19 02:08:03;;;;;;;11.82;8.98;;;7.60;99.90;;;;;;5022046;28;20053;-54
2022/04/19 02:10:31;;;;;;;10.85;9.32;;;7.50;99.90;;;;;;4992800;28;20132;-51
2022/04/19 02:12:58;;;;;;;10.88;7.68;;;7.50;99.90;;;;;;5022456;28;20048;-54
2022/04/19 02:15:31;;;;;;;11.23;8.55;;;7.50;99.90;;;;;;5025455;28;20060;-58
2022/04/19 02:18:03;;;;;;;11.85;9.02;;;7.50;99.90;;;;;;4988198;28;20453;-58
2022/04/19 02:20:30;;;;;;;11.50;9.02;;;7.50;99.90;;;;;;5024675;28;20080;-53
2022/04/19 02:22:56;;;;;;;10.52;8.93;;;7.50;99.90;;;;;;5024742;28;20116;-53
2022/04/19 02:25:26;;;;;;;9.63;7.97;;;7.40;99.90;;;;;;5023949;28;21143;-54
2022/04/19 02:27:53;;;;;;;11.90;9.18;;;7.40;99.90;;;;;;5023584;28;20084;-50
2022/04/19 02:30:22;;;;;;;13.10;9.55;;;7.40;99.90;;;;;;5004214;28;20050;-58
2022/04/19 02:32:55;;;;;;;13.27;8.98;;;7.30;99.90;;;;;;5023566;28;20068;-58
2022/04/19 02:35:23;;;;;;;11.63;8.75;;;7.20;99.90;;;;;;4993080;28;20076;-52
2022/04/19 02:37:50;;;;;;;12.63;8.93;;;7.20;99.90;;;;;;5007048;28;20756;-54
2022/04/19 02:40:19;;;;;;;11.25;9.07;;;7.20;99.90;;;;;;5021961;28;20543;-58
2022/04/19 02:42:47;;;;;;;10.30;8.80;;;7.10;99.90;;;;;;5024062;28;20072;-58
2022/04/19 02:45:13;;;;;;;11.82;8.75;;;7.10;99.90;;;;;;5010007;28;20464;-58
2022/04/19 02:47:42;;;;;;;11.15;8.77;;;7.00;99.90;;;;;;5023521;28;20068;-58
2022/04/19 02:50:09;;;;;;;10.50;8.60;;;7.00;99.90;;;;;;5023999;28;20511;-58
2022/04/19 02:52:35;;;;;;;10.40;8.25;;;7.00;99.90;;;;;;4991290;28;21817;-58
2022/04/19 02:55:01;;;;;;;9.27;7.90;;;6.90;99.90;;;;;;5018145;28;20049;-48
2022/04/19 02:57:27;;;;;;;11.35;8.80;;;6.90;99.90;;;;;;5008119;28;20049;-52
2022/04/19 02:59:53;;;;;;;13.50;9.35;;;6.90;99.90;;;;;;5007653;28;20056;-53
2022/04/19 03:02:20;;;;;;;11.60;8.35;;;6.80;99.90;;;;;;5006248;28;20132;-54
2022/04/19 03:04:46;;;;;;;11.07;8.80;;;6.80;99.90;;;;;;5006614;28;20156;-53
2022/04/19 03:07:16;;;;;;;9.85;8.15;;;6.70;99.90;;;;;;5023976;28;20137;-58
2022/04/19 03:09:42;;;;;;;12.00;9.35;;;6.70;99.90;;;;;;4990749;28;20463;-54
2022/04/19 03:12:14;;;;;;;11.57;8.88;;;6.70;99.90;;;;;;4993595;28;20076;-53
2022/04/19 03:14:53;;;;;;;12.18;9.98;;;6.70;99.90;;;;;;5008785;28;20057;-52
2022/04/19 03:17:19;;;;;;;10.73;8.25;;;6.70;99.90;;;;;;5007535;28;20677;-53
2022/04/19 03:19:45;;;;;;;12.43;8.65;;;6.70;99.90;;;;;;5006907;28;20057;-51
2022/04/19 03:22:12;;;;;;;11.18;8.50;;;6.70;99.90;;;;;;4995954;28;20772;-54
2022/04/19 03:27:43;;;;;;;11.25;9.15;;;6.60;99.90;;;;;;4985133;28;20052;-58
2022/04/19 03:30:15;;;;;;;10.82;8.70;;;6.60;99.90;;;;;;5007191;28;20053;-58
2022/04/19 03:32:42;;;;;;;10.48;8.50;;;6.50;99.90;;;;;;5003776;28;20077;-58
2022/04/19 03:35:09;;;;;;;10.82;8.45;;;6.50;99.90;;;;;;5023233;28;20674;-58
2022/04/19 03:37:35;;;;;;;12.60;8.43;;;6.40;99.90;;;;;;5023012;28;20053;-53
2022/04/19 03:40:01;;;;;;;11.00;8.60;;;6.40;99.90;;;;;;4989796;28;20068;-54
2022/04/19 03:42:27;;;;;;;12.80;10.45;;;6.40;99.90;;;;;;5013175;28;20046;-54
2022/04/19 03:44:54;;;;;;;11.68;9.45;;;6.40;99.90;;;;;;5020902;28;20038;-53
2022/04/19 03:47:20;;;;;;;15.38;8.55;;;6.40;99.90;;;;;;5023972;28;20095;-52
2022/04/19 03:50:18;;;;;;;11.25;9.02;;;6.40;99.90;;;;;;5002570;28;20050;-59
2022/04/19 03:52:46;;;;;;;13.65;9.10;;;6.30;99.90;;;;;;5003915;28;20057;-54
2022/04/19 03:55:12;;;;;;;13.23;8.93;;;6.40;99.90;;;;;;5022853;28;20072;-54
2022/04/19 03:57:39;;;;;;;11.90;9.75;;;6.30;99.90;;;;;;5023286;28;20152;-54
2022/04/19 04:00:08;;;;;;;11.80;8.90;;;6.30;99.90;;;;;;5023733;28;20589;-55
2022/04/19 04:02:42;;;;;;;12.13;9.98;;;6.30;99.90;;;;;;5021789;28;20433;-58
2022/04/19 04:05:17;;;;;;;11.73;9.70;;;6.40;99.90;;;;;;5021002;28;20136;-53
2022/04/19 04:07:43;;;;;;;12.52;10.02;;;6.30;99.90;;;;;;4995787;28;20048;-52
2022/04/19 04:10:13;;;;;;;12.93;8.63;;;6.30;99.90;;;;;;5023099;28;20324;-52
2022/04/19 04:12:40;;;;;;;13.73;10.95;;;6.30;99.90;;;;;;5022673;28;20049;-52
2022/04/19 04:15:09;;;;;;;11.93;9.27;;;6.30;99.90;;;;;;5004927;28;20045;-52
2022/04/19 04:17:35;;;;;;;13.15;9.65;;;6.30;99.90;;;;;;5012787;28;20112;-54
2022/04/19 04:20:01;;;;;;;13.27;10.07;;;6.30;99.90;;;;;;4971298;28;20041;-53
2022/04/19 04:22:27;;;;;;;13.23;10.27;;;6.30;99.90;;;;;;5021335;28;20820;-53
2022/04/19 04:24:54;;;;;;;13.02;9.80;;;6.30;99.90;;;;;;5021046;28;20037;-58
2022/04/19 04:27:22;;;;;;;12.90;10.23;;;6.40;99.90;;;;;;5020193;28;20036;-59
2022/04/19 04:29:48;;;;;;;11.40;9.65;;;6.30;99.90;;;;;;5022433;28;20045;-51
2022/04/19 04:32:14;;;;;;;13.57;9.93;;;6.30;99.90;;;;;;5022983;28;20049;-53
2022/04/19 04:34:42;;;;;;;13.45;9.98;;;6.30;99.90;;;;;;4999203;28;20053;-52
2022/04/19 04:37:09;;;;;;;12.35;10.63;;;6.30;99.90;;;;;;5021181;28;20057;-53
2022/04/19 04:39:43;;;;;;;11.10;9.70;;;6.30;99.90;;;;;;5020867;28;20057;-58
2022/04/19 04:42:24;;;;;;;12.88;9.98;;;6.30;99.90;;;;;;5007619;28;20072;-53
2022/04/19 04:44:50;;;;;;;14.02;10.77;;;6.30;99.90;;;;;;5018037;28;20052;-52
2022/04/19 04:50:01;;;;;;;12.65;10.15;;;6.30;99.90;;;;;;5012265;28;20492;-58
2022/04/19 04:52:29;;;;;;;12.75;9.68;;;6.30;99.90;;;;;;5008957;28;20476;-58
2022/04/19 04:54:56;;;;;;;11.90;9.65;;;6.40;99.90;;;;;;5002604;28;20115;-54
2022/04/19 04:57:26;;;;;;;13.07;10.18;;;6.30;99.90;;;;;;5018354;28;20052;-52
2022/04/19 04:59:52;;;;;;;12.57;10.48;;;6.40;99.90;;;;;;5004505;28;20516;-58
2022/04/19 05:02:23;;;;;;;11.60;10.38;;;6.40;99.90;;;;;;5017801;28;20055;-59
2022/04/19 05:04:50;;;;;;;10.75;9.65;;;6.40;99.90;;;;;;5006582;28;20503;-58
2022/04/19 05:07:17;;;;;;;13.50;10.55;;;6.50;99.90;;;;;;5017552;28;20045;-58
2022/04/19 05:09:49;;;;;;;13.32;9.68;;;6.50;99.90;;;;;;5005121;28;20058;-59
2022/04/19 05:12:15;;;;;;;15.55;10.73;;;6.50;99.90;;;;;;5020917;28;20961;-59
2022/04/19 05:14:42;;;;;;;13.98;10.02;;;6.60;99.90;;;;;;5002474;28;20050;-52
2022/04/19 05:17:08;;;;;;;12.75;10.38;;;6.60;99.90;;;;;;5011024;28;20439;-58
2022/04/19 05:19:40;;;;;;;15.63;10.60;;;6.80;99.90;;;;;;5014409;28;20053;-58
2022/04/19 05:22:06;;;;;;;12.98;9.93;;;6.90;99.90;;;;;;5009952;28;20057;-58
2022/04/19 05:24:32;;;;;;;12.88;10.68;;;6.90;99.90;;;;;;4985997;28;20048;-59
2022/04/19 05:26:58;;;;;;;17.02;10.30;;;7.00;99.90;;;;;;4997799;28;20081;-59
2022/04/19 05:29:25;;;;;;;13.13;10.25;;;7.10;99.90;;;;;;5010724;28;20046;-58
2022/04/19 05:31:52;;;;;;;14.43;10.38;;;7.20;99.90;;;;;;4977346;28;20053;-58
2022/04/19 05:34:18;;;;;;;17.60;11.27;;;7.30;99.90;;;;;;5013018;28;20057;-54
2022/04/19 05:36:45;;;;;;;13.70;10.57;;;7.30;99.90;;;;;;5014114;28;20056;-54
2022/04/19 05:39:12;;;;;;;14.32;10.50;;;7.40;99.90;;;;;;5001100;28;20053;-54
2022/04/19 05:41:41;;;;;;;12.40;10.05;;;7.50;99.90;;;;;;4994905;28;20104;-58
2022/04/19 05:44:09;;;;;;;14.05;11.23;;;7.60;99.90;;;;;;5016237;28;20046;-58
2022/04/19 05:46:36;;;;;;;13.15;10.38;;;7.70;99.90;;;;;;5010664;28;20054;-57
2022/04/19 05:49:06;;;;;;;12.40;10.18;;;7.90;99.90;;;;;;4977826;28;20594;-54
2022/04/19 05:51:34;;;;;;;14.05;10.60;;;8.10;99.90;;;;;;4992679;28;20076;-59
2022/04/19 05:54:02;;;;;;;13.25;10.05;;;8.20;99.90;;;;;;5013498;28;20487;-58
2022/04/19 05:56:30;;;;;;;12.85;10.45;;;8.50;99.90;;;;;;5008161;28;20053;-58
2022/04/19 05:58:56;;;;;;;10.93;9.45;;;8.60;99.90;;;;;;5015294;28;20111;-59
2022/04/19 06:01:23;;;;;;;11.68;9.10;;;8.80;99.90;;;;;;4994621;28;20049;-53
2022/04/19 06:06:39;;;;;;;10.18;9.00;;;9.10;99.90;;;;;;5014978;28;20049;-58
2022/04/19 06:09:06;;;;;;;12.00;10.13;;;9.20;99.90;;;;;;5020149;28;20052;-61
2022/04/19 06:11:32;;;;;;;12.70;10.38;;;9.30;99.90;;;;;;5018316;28;20526;-58
2022/04/19 06:13:58;;;;;;;13.77;10.88;;;9.50;99.90;;;;;;5002349;28;20049;-59
2022/04/19 06:16:25;;;;;;;13.70;10.35;;;9.70;99.90;;;;;;5022387;28;20119;-59
2022/04/19 06:18:54;;;;;;;10.88;9.77;;;9.80;99.90;;;;;;5002516;28;20132;-59
2022/04/19 06:21:26;;;;;;;;;;;10.00;99.90;;;;;;5004737;28;20140;-60
2022/04/19 06:23:54;;;;;;;11.60;9.00;;;10.30;99.90;;;;;;5032936;28;20055;-59
2022/04/19 06:26:20;;;;;;;12.80;8.70;;;10.40;99.90;;;;;;5012004;28;20056;-59
2022/04/19 06:28:50;;;;;;;17.02;14.45;;;10.50;99.90;;;;;;5022541;28;20052;-59
2022/04/19 06:31:17;;;;;;;27.75;22.67;;;10.70;99.90;;;;;;5025601;28;20049;-59
2022/04/19 06:33:48;;;;;;;17.83;14.27;;;11.20;99.90;;;;;;4999393;28;20049;-58
2022/04/19 06:36:16;;;;;;;9.10;7.50;;;11.40;99.90;;;;;;5012102;28;20054;-59
2022/04/19 06:38:42;;;;;;;10.27;7.20;;;11.60;99.90;;;;;;4988663;28;20125;-59
2022/04/19 06:41:11;;;;;;;13.35;10.07;;;11.70;99.90;;;;;;5012782;28;20092;-58
2022/04/19 06:43:38;;;;;;;8.95;7.43;;;11.70;99.90;;;;;;4981963;28;20049;-60
2022/04/19 06:46:15;;;;;;;9.55;7.18;;;11.90;99.90;;;;;;4983677;28;20049;-59
2022/04/19 06:48:46;;;;;;;12.55;10.35;;;11.90;99.90;;;;;;5024425;28;20102;-59
2022/04/19 06:51:12;;;;;;;10.52;8.43;;;12.10;99.90;;;;;;5024276;28;20049;-59
2022/04/19 06:53:39;;;;;;;11.68;7.05;;;12.10;99.90;;;;;;5006932;28;20049;-59
2022/04/19 06:56:26;;;;;;;9.85;7.47;;;12.30;99.90;;;;;;5013008;28;20067;-59
2022/04/19 06:58:54;;;;;;;11.45;8.23;;;12.70;99.90;;;;;;5002662;28;20056;-59
2022/04/19 07:01:20;;;;;;;10.02;7.30;;;12.90;99.90;;;;;;5022320;28;20404;-59
2022/04/19 07:03:59;;;;;;;8.93;7.30;;;13.10;99.90;;;;;;5024638;28;20056;-59
2022/04/19 07:06:39;;;;;;;9.77;7.43;;;13.40;99.90;;;;;;5006148;28;20084;-60
2022/04/19 07:09:05;;;;;;;10.57;7.43;;;13.80;99.90;;;;;;5007196;28;20041;-59
2022/04/19 07:11:31;;;;;;;10.88;7.78;;;13.90;99.90;;;;;;5000492;28;20059;-60
2022/04/19 07:14:09;;;;;;;11.43;8.27;;;14.30;99.90;;;;;;5007322;28;20580;-59
2022/04/19 07:16:53;;;;;;;11.00;8.18;;;14.50;99.90;;;;;;5010632;28;20041;-60
2022/04/19 07:19:20;;;;;;;10.75;7.15;;;14.80;99.90;;;;;;5004288;28;20112;-58
2022/04/19 07:27:22;;;;;;;8.77;7.13;;;16.10;87.40;;;;;;4988721;28;20125;-57
2022/04/19 07:29:49;;;;;;;10.80;7.80;;;16.20;85.80;;;;;;5007836;28;20350;-58
2022/04/19 07:32:15;;;;;;;12.02;9.85;;;16.70;82.10;;;;;;5007576;28;20065;-59
2022/04/19 07:34:58;;;;;;;10.30;7.82;;;16.90;77.30;;;;;;5022326;28;20053;-58
2022/04/19 07:37:25;;;;;;;13.00;10.60;;;17.30;74.80;;;;;;5021154;28;20111;-57
2022/04/19 07:39:52;;;;;;;11.05;7.47;;;17.40;72.90;;;;;;5013588;28;20053;-57
2022/04/19 07:42:19;;;;;;;9.68;7.90;;;17.60;68.90;;;;;;5024110;28;20057;-57
2022/04/19 07:44:45;;;;;;;11.13;7.63;;;17.60;66.70;;;;;;4991347;28;20049;-57
2022/04/19 07:47:14;;;;;;;9.30;6.50;;;17.80;64.80;;;;;;5022282;28;20081;-56
2022/04/19 07:49:41;;;;;;;8.15;6.70;;;17.80;64.50;;;;;;5023858;28;20567;-57
2022/04/19 07:52:07;;;;;;;8.25;5.90;;;18.00;61.60;;;;;;4989388;28;20064;-57
2022/04/19 07:54:35;;;;;;;9.43;7.95;;;18.10;60.50;;;;;;5022905;28;20064;-56
2022/04/19 07:57:02;;;;;;;8.15;5.13;;;18.40;60.80;;;;;;5022430;28;20398;-57
2022/04/19 07:59:28;;;;;;;10.95;8.52;;;18.40;58.30;;;;;;5012549;28;20846;-57
2022/04/19 08:01:55;;;;;;;7.75;6.32;;;18.60;57.20;;;;;;4991209;28;20234;-58
2022/04/19 08:04:21;;;;;;;12.27;8.98;;;18.90;54.70;;;;;;5023727;28;20110;-59
2022/04/19 08:06:48;;;;;;;7.63;6.20;;;19.00;56.20;;;;;;4999595;28;20049;-58
2022/04/19 08:09:17;;;;;;;13.32;9.05;;;19.00;55.10;;;;;;5020415;28;20049;-56
2022/04/19 08:11:43;;;;;;;11.65;8.60;;;19.30;55.80;;;;;;4990320;28;20053;-58
2022/04/19 08:14:09;;;;;;;8.27;6.53;;;19.50;54.80;;;;;;5005728;28;20537;-57
2022/04/19 08:16:36;;;;;;;10.48;7.00;;;19.50;53.20;;;;;;5005737;28;20448;-57
2022/04/19 08:19:02;;;;;;;14.55;13.07;;;19.60;52.90;;;;;;5011071;28;20159;-57
2022/04/19 08:21:29;;;;;;;9.63;6.68;;;19.90;51.60;;;;;;5013887;28;20041;-56
2022/04/19 08:23:55;;;;;;;9.38;6.07;;;19.90;51.60;;;;;;5018559;28;20412;-57
2022/04/19 08:26:21;;;;;;;8.55;6.63;;;20.00;49.70;;;;;;5006490;28;20053;-59
2022/04/19 08:28:48;;;;;;;7.72;6.53;;;20.20;50.00;;;;;;5023275;28;20393;-57
2022/04/19 08:31:14;;;;;;;9.88;7.13;;;20.20;48.40;;;;;;4989163;28;20120;-56
2022/04/19 08:33:41;;;;;;;8.20;6.00;;;20.00;47.70;;;;;;5020987;28;20409;-56
2022/04/19 08:36:11;;;;;;;9.38;6.00;;;19.80;46.80;;;;;;5023223;28;20499;-57
2022/04/19 08:38:37;;;;;;;6.63;5.90;;;20.00;47.30;;;;;;5024042;28;20048;-57
2022/04/19 08:41:04;;;;;;;132.65;20.85;;;20.10;48.00;;;;;;5022235;28;20092;-56
2022/04/19 08:43:32;;;;;;;50.42;15.57;;;20.00;49.60;;;;;;5005711;28;20834;-58
2022/04/19 08:45:59;;;;;;;17.23;9.95;;;20.20;49.40;;;;;;5021717;28;20087;-58
2022/04/19 08:48:26;;;;;;;11.13;7.80;;;20.60;48.80;;;;;;5024780;28;20041;-57
2022/04/19 08:50:54;;;;;;;11.52;9.68;;;20.30;47.00;;;;;;5022237;28;20071;-57
2022/04/19 08:58:52;;;;;;;10.20;7.80;;;20.50;46.90;;;;;;5021243;28;20134;-57
2022/04/19 09:01:19;;;;;;;9.30;8.27;;;20.80;46.40;;;;;;5001243;28;20060;-57
2022/04/19 09:03:45;;;;;;;7.22;4.80;;;20.80;44.50;;;;;;5014343;28;20094;-57
2022/04/19 09:06:11;;;;;;;6.38;4.38;;;21.00;43.60;;;;;;5005342;28;20057;-56
2022/04/19 09:08:37;;;;;;;5.70;4.25;;;21.20;43.80;;;;;;5021327;28;20757;-56
2022/04/19 09:11:05;;;;;;;6.85;4.85;;;21.40;42.60;;;;;;5022141;28;20135;-57
2022/04/19 09:13:31;;;;;;;6.30;3.97;;;21.20;41.00;;;;;;5020069;28;20750;-56
2022/04/19 09:16:06;;;;;;;12.93;10.85;;;21.60;40.20;;;;;;5024072;28;20132;-56
2022/04/19 09:18:35;;;;;;;11.07;5.57;;;21.10;40.90;;;;;;5021374;28;20049;-59
2022/04/19 09:21:03;;;;;;;4.63;2.67;;;21.20;40.80;;;;;;5021895;28;20053;-58
2022/04/19 09:23:31;;;;;;;7.95;3.53;;;21.40;39.00;;;;;;5009914;28;20129;-58
2022/04/19 09:26:00;;;;;;;8.35;5.80;;;21.40;37.90;;;;;;5009201;28;20042;-56
2022/04/19 09:28:26;;;;;;;6.35;4.70;;;21.40;36.90;;;;;;5022129;28;20108;-56
2022/04/19 09:30:58;;;;;;;14.60;13.07;;;21.50;36.80;;;;;;5014366;28;20049;-58
2022/04/19 09:33:26;;;;;;;9.75;8.13;;;21.80;36.70;;;;;;4999901;28;20739;-56
2022/04/19 09:36:04;;;;;;;9.55;7.03;;;22.20;36.60;;;;;;5020562;28;20110;-57
2022/04/19 09:38:38;;;;;;;10.93;8.75;;;22.20;35.90;;;;;;5022259;28;20057;-56
2022/04/19 09:41:06;;;;;;;9.45;7.40;;;22.40;34.80;;;;;;5022151;28;20045;-58
2022/04/19 09:43:33;;;;;;;7.50;4.95;;;22.50;34.40;;;;;;5016547;28;20060;-58
2022/04/19 09:46:04;;;;;;;4.60;2.78;;;22.70;34.40;;;;;;5016320;28;20117;-57
2022/04/19 09:48:31;;;;;;;;;;;22.80;33.10;;;;;;5007035;28;20054;-56
2022/04/19 09:51:04;;;;;;;6.57;3.67;;;22.30;29.90;;;;;;5028905;28;19921;-56
2022/04/19 09:53:39;;;;;;;8.40;5.57;;;22.70;33.00;;;;;;5022376;28;20520;-56
2022/04/19 09:56:09;;;;;;;7.97;4.03;;;22.70;33.00;;;;;;5024707;28;20059;-56
2022/04/19 09:58:37;;;;;;;8.15;4.97;;;22.80;32.40;;;;;;5017494;28;20108;-56
2022/04/19 10:01:04;;;;;;;3.30;1.85;;;23.10;32.90;;;;;;5024671;28;20058;-56
2022/04/19 10:09:05;;;;;;;3.55;2.25;;;23.40;31.10;;;;;;5023726;28;20691;-54
2022/04/19 10:11:32;;;;;;;7.72;2.53;;;22.50;30.20;;;;;;5015210;28;20566;-57
2022/04/19 10:13:59;;;;;;;4.57;2.33;;;22.40;31.40;;;;;;5024568;28;20053;-57
2022/04/19 10:16:28;;;;;;;3.90;1.95;;;22.20;30.30;;;;;;5008472;28;20852;-56
2022/04/19 10:18:54;;;;;;;4.95;3.83;;;22.40;31.40;;;;;;5024415;28;20124;-56
2022/04/19 10:21:34;;;;;;;7.75;2.80;;;22.70;31.20;;;;;;5023466;28;20525;-58
2022/04/19 10:24:14;;;;;;;3.05;1.70;;;22.80;30.40;;;;;;4973394;28;20092;-56
2022/04/19 10:26:53;;;;;;;2.70;1.10;;;23.20;30.90;;;;;;5025594;28;20045;-58
2022/04/19 10:29:25;;;;;;;5.75;1.90;;;22.80;29.90;;;;;;5008282;28;20382;-58
2022/04/19 10:32:01;;;;;;;3.67;1.67;;;22.50;30.00;;;;;;4989932;28;20077;-59
2022/04/19 10:34:30;;;;;;;4.97;1.50;;;22.40;30.40;;;;;;5024478;28;20138;-58
2022/04/19 10:37:18;;;;;;;5.18;3.60;;;22.50;30.80;;;;;;5006526;28;20049;-58
2022/04/19 10:39:55;;;;;;;3.33;1.70;;;21.90;31.00;;;;;;5006476;28;20409;-58
2022/04/19 10:42:32;;;;;;;4.90;1.90;;;22.50;31.70;;;;;;5008137;28;20050;-58
2022/04/19 10:45:13;;;;;;;34.28;4.38;;;22.50;30.30;;;;;;5006132;28;20381;-57
2022/04/19 10:47:51;;;;;;;2.83;1.50;;;22.60;31.80;;;;;;5007234;28;20457;-58
2022/04/19 10:50:29;;;;;;;6.25;5.03;;;23.40;32.30;;;;;;5024651;28;20053;-58
2022/04/19 10:53:08;;;;;;;5.60;3.60;;;23.10;32.90;;;;;;5023839;28;20362;-57
2022/04/19 10:55:39;;;;;;;3.45;1.90;;;23.00;31.50;;;;;;5025189;28;20046;-57
2022/04/19 10:58:23;;;;;;;12.15;6.25;;;23.00;31.90;;;;;;5018429;28;20049;-57
2022/04/19 11:01:31;;;;;;;2.58;1.30;;;23.30;32.40;;;;;;5010623;28;20054;-59
2022/04/19 11:03:57;;;;;;;3.70;1.88;;;23.40;31.50;;;;;;5022235;28;21096;-58
2022/04/19 11:06:38;;;;;;;3.60;1.50;;;22.80;31.60;;;;;;5023537;28;20053;-57
2022/04/19 11:09:16;;;;;;;4.03;1.95;;;23.50;32.10;;;;;;5024872;28;20570;-57
2022/04/19 11:11:53;;;;;;;2.88;1.67;;;23.10;31.30;;;;;;5021676;28;21319;-58
2022/04/19 11:14:43;;;;;;;4.25;1.77;;;22.70;31.30;;;;;;5024447;28;20057;-57
2022/04/19 11:17:22;;;;;;;4.38;1.80;;;22.50;31.90;;;;;;5005509;28;20541;-57
2022/04/19 11:19:55;;;;;;;4.45;2.10;;;22.40;32.20;;;;;;5006471;28;20344;-58
2022/04/19 11:22:42;;;;;;;6.63;4.05;;;22.80;32.30;;;;;;5015787;28;20046;-58
2022/04/19 11:25:08;;;;;;;3.47;2.00;;;23.10;33.10;;;;;;5022278;28;20800;-56
2022/04/19 11:27:53;;;;;;;3.10;1.67;;;23.00;32.80;;;;;;5024390;28;20129;-58
2022/04/19 11:30:23;;;;;;;2.90;1.70;;;23.60;32.90;;;;;;5007359;28;20088;-58
2022/04/19 11:32:52;;;;;;;5.53;2.47;;;23.30;33.00;;;;;;5020531;28;20488;-56
2022/04/19 11:35:19;;;;;;;5.25;2.08;;;23.20;32.30;;;;;;4999586;28;20161;-58
2022/04/19 11:37:46;;;;;;;2.53;1.77;;;23.50;32.70;;;;;;5024016;28;20052;-57
2022/04/19 11:49:08;;;;;;;6.80;2.40;;;24.40;33.00;;;;;;5019931;28;20896;-57
2022/04/19 11:51:35;;;;;;;4.80;2.50;;;24.90;32.20;;;;;;5003518;28;20052;-57
2022/04/19 11:54:05;;;;;;;4.85;2.33;;;25.00;31.60;;;;;;5014981;28;20049;-56
2022/04/19 11:56:32;;;;;;;4.45;2.83;;;24.30;31.10;;;;;;5021294;28;20049;-57
2022/04/19 11:59:00;;;;;;;3.65;2.00;;;24.70;32.40;;;;;;5008031;28;20045;-56
2022/04/19 12:01:28;;;;;;;2.60;1.67;;;24.80;31.30;;;;;;5004207;28;20057;-57
2022/04/19 12:03:55;;;;;;;6.85;4.43;;;24.60;31.60;;;;;;5029620;28;20121;-57
2022/04/19 12:06:22;;;;;;;3.45;1.50;;;24.60;32.60;;;;;;5013553;28;20045;-58
2022/04/19 12:08:50;;;;;;;4.78;3.10;;;24.20;31.30;;;;;;5020915;28;20038;-58
2022/04/19 12:11:25;;;;;;;8.85;3.92;;;24.30;32.30;;;;;;5004721;28;20704;-58
2022/04/19 12:13:51;;;;;;;4.65;3.17;;;24.00;31.60;;;;;;5022529;28;20049;-58
2022/04/19 12:16:30;;;;;;;7.05;3.53;;;23.90;32.20;;;;;;4995872;28;20061;-58
2022/04/19 12:18:59;;;;;;;10.00;5.78;;;24.00;33.70;;;;;;5005653;28;20120;-58
2022/04/19 12:21:39;;;;;;;5.97;2.90;;;24.60;32.80;;;;;;5021910;28;20057;-58
2022/04/19 12:24:19;;;;;;;4.78;2.00;;;24.70;32.90;;;;;;5016005;28;20057;-55
2022/04/19 12:26:50;;;;;;;2.85;2.05;;;24.30;31.40;;;;;;5012684;28;20049;-57
2022/04/19 12:29:16;;;;;;;5.93;4.18;;;24.50;31.80;;;;;;5023278;28;20399;-56
2022/04/19 12:31:46;;;;;;;3.80;2.58;;;24.60;32.10;;;;;;5021349;28;20057;-56
2022/04/19 12:34:15;;;;;;;5.07;3.70;;;24.30;31.40;;;;;;5020680;28;20096;-57
2022/04/19 12:36:42;;;;;;;5.13;3.65;;;23.90;31.20;;;;;;5012948;28;20045;-57
2022/04/19 12:39:08;;;;;;;5.47;4.78;;;23.70;32.50;;;;;;5015726;28;20436;-57
2022/04/19 12:41:34;;;;;;;5.30;3.35;;;24.50;32.70;;;;;;5003753;28;20941;-57
2022/04/19 12:44:01;;;;;;;6.00;4.43;;;24.80;31.90;;;;;;4989991;28;20048;-56
2022/04/19 12:46:28;;;;;;;8.32;6.32;;;25.30;32.00;;;;;;5017635;28;20116;-56
2022/04/19 12:48:54;;;;;;;9.40;8.07;;;24.90;31.60;;;;;;5019712;28;20492;-56
2022/04/19 12:51:25;;;;;;;15.20;7.88;;;25.00;31.80;;;;;;5018445;28;20140;-57
2022/04/19 12:54:09;;;;;;;7.38;5.20;;;25.10;31.20;;;;;;5010079;28;20060;-57
2022/04/19 12:56:36;;;;;;;3.92;2.30;;;25.20;31.50;;;;;;5022343;28;20089;-58
2022/04/19 12:59:02;;;;;;;4.13;2.30;;;25.50;30.80;;;;;;5009173;28;185231;-57
2022/04/19 13:01:28;;;;;;;5.50;3.65;;;25.50;29.80;;;;;;5023028;28;20701;-57
2022/04/19 13:03:54;;;;;;;7.53;5.43;;;24.50;30.40;;;;;;5022722;28;20084;-57
2022/04/19 13:14:35;;;;;;;8.30;3.83;;;25.10;30.30;;;;;;5003043;28;20050;-56
2022/04/19 13:17:02;;;;;;;5.72;3.38;;;25.20;30.20;;;;;;5001675;28;20112;-57
2022/04/19 13:19:29;;;;;;;9.98;5.15;;;24.30;29.50;;;;;;5003996;28;20582;-57
2022/04/19 13:21:55;;;;;;;4.20;2.75;;;24.60;30.60;;;;;;5021893;28;20053;-57
2022/04/19 13:24:21;;;;;;;3.90;2.50;;;25.00;30.50;;;;;;5016422;28;20137;-56
2022/04/19 13:26:47;;;;;;;4.35;2.30;;;24.50;30.90;;;;;;5004540;28;20050;-56
2022/04/19 13:29:14;;;;;;;3.97;2.67;;;24.60;30.30;;;;;;4987138;28;20275;-57
2022/04/19 13:31:40;;;;;;;7.93;4.68;;;25.40;30.00;;;;;;5015893;28;20135;-56
2022/04/19 13:34:10;;;;;;;5.70;3.30;;;25.60;30.50;;;;;;5023109;28;20054;-58
2022/04/19 13:36:36;;;;;;;4.88;2.60;;;25.70;30.10;;;;;;5022258;28;20052;-57
2022/04/19 13:39:02;;;;;;;10.55;7.63;;;25.80;30.00;;;;;;5024477;28;20091;-59